sensor_id;sensor_type;location;lat;lon;timestamp;pressure;altitude;pressure_sealevel;temperature;humidity
63715;BME280;49858;48.956;9.076;2023-04-29T00:01:19;98432.47;;;15.09;100.00
63715;BME280;49858;48.956;9.076;2023-04-29T00:03:47;98425.75;;;15.14;100.00
63715;BME280;49858;48.956;9.076;2023-04-29T00:06:15;98427.34;;;15.19;100.00
63715;BME280;49858;48.956;9.076;2023-04-29T00:08:45;98421.41;;;15.27;100.00
63715;BME280;49858;48.956;9.076;2023-04-29T00:11:12;98415.47;;;15.22;100.00
63715;BME280;49858;48.956;9.076;2023-04-29T00:13:40;98418.28;;;15.43;100.00
63715;BME280;49858;48.956;9.076;2023-04-29T00:16:08;98417.88;;;15.41;100.00
63715;BME280;49858;48.956;9.076;2023-04-29T00:18:36;98414.72;;;15.53;100.00
63715;BME280;49858;48.956;9.076;2023-04-29T00:21:05;98425.78;;;15.36;100.00
63715;BME280;49858;48.956;9.076;2023-04-29T00:23:33;98415.91;;;15.34;100.00
63715;BME280;49858;48.956;9.076;2023-04-29T00:26:02;98412.72;;;15.57;100.00
63715;BME280;49858;48.956;9.076;2023-04-29T00:28:30;98413.09;;;15.52;100.00
63715;BME280;49858;48.956;9.076;2023-04-29T00:30:58;98405.19;;;15.76;100.00
63715;BME280;49858;48.956;9.076;2023-04-29T00:33:26;98404.41;;;15.79;100.00
63715;BME280;49858;48.956;9.076;2023-04-29T00:35:54;98404.41;;;15.25;100.00
63715;BME280;49858;48.956;9.076;2023-04-29T00:38:22;98417.34;;;14.75;100.00
63715;BME280;49858;48.956;9.076;2023-04-29T00:40:50;98414.63;;;14.82;100.00
63715;BME280;49858;48.956;9.076;2023-04-29T00:43:19;98424.53;;;14.97;100.00
63715;BME280;49858;48.956;9.076;2023-04-29T00:45:47;98428.41;;;14.64;100.00
63715;BME280;49858;48.956;9.076;2023-04-29T00:48:16;98439.13;;;14.80;100.00
63715;BME280;49858;48.956;9.076;2023-04-29T00:50:47;98437.09;;;14.59;100.00
63715;BME280;49858;48.956;9.076;2023-04-29T00:53:16;98437.47;;;14.61;100.00
63715;BME280;49858;48.956;9.076;2023-04-29T00:55:45;98432.84;;;14.94;100.00
63715;BME280;49858;48.956;9.076;2023-04-29T00:58:14;98437.59;;;15.04;100.00
63715;BME280;49858;48.956;9.076;2023-04-29T01:00:44;98444.75;;;15.08;100.00
63715;BME280;49858;48.956;9.076;2023-04-29T01:03:13;98441.09;;;14.79;100.00
63715;BME280;49858;48.956;9.076;2023-04-29T01:05:44;98440.75;;;14.95;100.00
63715;BME280;49858;48.956;9.076;2023-04-29T01:08:20;98445.56;;;15.27;100.00
63715;BME280;49858;48.956;9.076;2023-04-29T01:10:54;98443.19;;;15.29;100.00
63715;BME280;49858;48.956;9.076;2023-04-29T01:13:28;98438.78;;;15.03;100.00
63715;BME280;49858;48.956;9.076;2023-04-29T01:16:02;98441.59;;;15.14;100.00
63715;BME280;49858;48.956;9.076;2023-04-29T01:18:33;98446.72;;;15.04;100.00
63715;BME280;49858;48.956;9.076;2023-04-29T01:21:03;98441.59;;;15.06;100.00
63715;BME280;49858;48.956;9.076;2023-04-29T01:23:36;98447.56;;;15.48;100.00
63715;BME280;49858;48.956;9.076;2023-04-29T01:26:04;98447.97;;;15.46;100.00
63715;BME280;49858;48.956;9.076;2023-04-29T01:29:14;98438.06;;;15.31;100.00
63715;BME280;49858;48.956;9.076;2023-04-29T01:31:55;98439.22;;;15.16;100.00
63715;BME280;49858;48.956;9.076;2023-04-29T01:34:30;98445.16;;;15.18;100.00
63715;BME280;49858;48.956;9.076;2023-04-29T01:37:06;98449.56;;;15.44;100.00
63715;BME280;49858;48.956;9.076;2023-04-29T01:39:55;98445.53;;;15.09;100.00
63715;BME280;49858;48.956;9.076;2023-04-29T01:42:32;98442.41;;;15.60;100.00
63715;BME280;49858;48.956;9.076;2023-04-29T01:45:09;98441.25;;;15.76;100.00
63715;BME280;49858;48.956;9.076;2023-04-29T01:47:38;98438.88;;;15.53;100.00
63715;BME280;49858;48.956;9.076;2023-04-29T01:50:06;98436.88;;;15.39;100.00
63715;BME280;49858;48.956;9.076;2023-04-29T01:52:34;98439.25;;;15.58;100.00
63715;BME280;49858;48.956;9.076;2023-04-29T01:55:05;98441.22;;;15.37;100.00
63715;BME280;49858;48.956;9.076;2023-04-29T01:57:50;98434.50;;;15.34;100.00
63715;BME280;49858;48.956;9.076;2023-04-29T02:00:35;98446.66;;;14.90;100.00
63715;BME280;49858;48.956;9.076;2023-04-29T02:03:04;98450.63;;;14.82;100.00
63715;BME280;49858;48.956;9.076;2023-04-29T02:05:37;98458.50;;;14.80;100.00
63715;BME280;49858;48.956;9.076;2023-04-29T02:08:05;98447.00;;;14.71;100.00
63715;BME280;49858;48.956;9.076;2023-04-29T02:10:40;98458.78;;;14.53;100.00
63715;BME280;49858;48.956;9.076;2023-04-29T02:13:18;98454.56;;;14.81;100.00
63715;BME280;49858;48.956;9.076;2023-04-29T02:15:46;98447.25;;;14.44;100.00
63715;BME280;49858;48.956;9.076;2023-04-29T02:18:14;98452.19;;;14.83;100.00
63715;BME280;49858;48.956;9.076;2023-04-29T02:20:42;98447.34;;;14.62;100.00
63715;BME280;49858;48.956;9.076;2023-04-29T02:23:10;98447.78;;;14.68;100.00
63715;BME280;49858;48.956;9.076;2023-04-29T02:25:39;98455.72;;;14.76;100.00
63715;BME280;49858;48.956;9.076;2023-04-29T02:28:07;98451.47;;;15.15;100.00
63715;BME280;49858;48.956;9.076;2023-04-29T02:30:38;98449.09;;;15.02;100.00
63715;BME280;49858;48.956;9.076;2023-04-29T02:33:06;98446.34;;;15.13;100.00
63715;BME280;49858;48.956;9.076;2023-04-29T02:35:34;98444.28;;;14.85;100.00
63715;BME280;49858;48.956;9.076;2023-04-29T02:38:02;98450.53;;;14.61;100.00
63715;BME280;49858;48.956;9.076;2023-04-29T02:40:30;98449.16;;;14.29;100.00
63715;BME280;49858;48.956;9.076;2023-04-29T02:42:59;98459.31;;;14.11;100.00
63715;BME280;49858;48.956;9.076;2023-04-29T02:45:27;98465.66;;;14.15;100.00
63715;BME280;49858;48.956;9.076;2023-04-29T02:47:55;98464.13;;;14.18;100.00
63715;BME280;49858;48.956;9.076;2023-04-29T02:50:23;98464.44;;;14.75;100.00
63715;BME280;49858;48.956;9.076;2023-04-29T02:52:51;98459.94;;;14.45;100.00
63715;BME280;49858;48.956;9.076;2023-04-29T02:55:19;98465.72;;;14.22;100.00
63715;BME280;49858;48.956;9.076;2023-04-29T02:57:49;98453.69;;;13.93;100.00
63715;BME280;49858;48.956;9.076;2023-04-29T03:00:19;98460.94;;;14.16;100.00
63715;BME280;49858;48.956;9.076;2023-04-29T03:02:47;98462.44;;;14.06;100.00
63715;BME280;49858;48.956;9.076;2023-04-29T03:05:16;98466.72;;;13.96;100.00
63715;BME280;49858;48.956;9.076;2023-04-29T03:07:44;98469.34;;;14.33;100.00
63715;BME280;49858;48.956;9.076;2023-04-29T03:10:12;98460.06;;;14.74;100.00
63715;BME280;49858;48.956;9.076;2023-04-29T03:12:40;98447.06;;;14.85;100.00
63715;BME280;49858;48.956;9.076;2023-04-29T03:15:08;98454.97;;;14.83;100.00
63715;BME280;49858;48.956;9.076;2023-04-29T03:17:38;98457.06;;;14.27;100.00
63715;BME280;49858;48.956;9.076;2023-04-29T03:20:07;98462.41;;;13.99;100.00
63715;BME280;49858;48.956;9.076;2023-04-29T03:22:36;98470.34;;;13.52;100.00
63715;BME280;49858;48.956;9.076;2023-04-29T03:25:05;98468.44;;;13.60;100.00
63715;BME280;49858;48.956;9.076;2023-04-29T03:27:33;98471.78;;;13.87;100.00
63715;BME280;49858;48.956;9.076;2023-04-29T03:30:01;98468.53;;;13.71;100.00
63715;BME280;49858;48.956;9.076;2023-04-29T03:32:31;98467.72;;;14.29;100.00
63715;BME280;49858;48.956;9.076;2023-04-29T03:35:00;98466.44;;;14.85;100.00
63715;BME280;49858;48.956;9.076;2023-04-29T03:37:34;98453.06;;;15.23;100.00
63715;BME280;49858;48.956;9.076;2023-04-29T03:40:15;98446.34;;;15.24;100.00
63715;BME280;49858;48.956;9.076;2023-04-29T03:42:43;98449.91;;;15.28;100.00
63715;BME280;49858;48.956;9.076;2023-04-29T03:45:11;98445.50;;;15.05;100.00
63715;BME280;49858;48.956;9.076;2023-04-29T03:47:39;98438.06;;;15.42;100.00
63715;BME280;49858;48.956;9.076;2023-04-29T03:50:09;98446.38;;;15.45;100.00
63715;BME280;49858;48.956;9.076;2023-04-29T03:52:41;98445.59;;;15.55;100.00
63715;BME280;49858;48.956;9.076;2023-04-29T03:55:12;98444.00;;;15.54;100.00
63715;BME280;49858;48.956;9.076;2023-04-29T03:57:41;98441.38;;;14.53;100.00
63715;BME280;49858;48.956;9.076;2023-04-29T04:00:11;98449.31;;;14.58;100.00
63715;BME280;49858;48.956;9.076;2023-04-29T04:02:43;98448.53;;;14.61;100.00
63715;BME280;49858;48.956;9.076;2023-04-29T04:05:14;98443.94;;;14.97;100.00
63715;BME280;49858;48.956;9.076;2023-04-29T04:07:51;98441.16;;;14.97;100.00
63715;BME280;49858;48.956;9.076;2023-04-29T04:10:45;98439.78;;;14.48;100.00
63715;BME280;49858;48.956;9.076;2023-04-29T04:13:42;98467.53;;;13.12;100.00
63715;BME280;49858;48.956;9.076;2023-04-29T04:16:11;98484.69;;;12.91;100.00
63715;BME280;49858;48.956;9.076;2023-04-29T04:18:39;98495.94;;;13.12;100.00
63715;BME280;49858;48.956;9.076;2023-04-29T04:21:10;98507.06;;;13.53;100.00
63715;BME280;49858;48.956;9.076;2023-04-29T04:23:41;98510.09;;;14.40;100.00
63715;BME280;49858;48.956;9.076;2023-04-29T04:26:12;98486.47;;;14.50;100.00
63715;BME280;49858;48.956;9.076;2023-04-29T04:28:59;98494.97;;;14.93;100.00
63715;BME280;49858;48.956;9.076;2023-04-29T04:31:52;98496.19;;;15.06;100.00
63715;BME280;49858;48.956;9.076;2023-04-29T04:34:21;98492.16;;;14.89;100.00
63715;BME280;49858;48.956;9.076;2023-04-29T04:36:52;98501.84;;;13.92;100.00
63715;BME280;49858;48.956;9.076;2023-04-29T04:39:21;98505.88;;;13.50;100.00
63715;BME280;49858;48.956;9.076;2023-04-29T04:41:50;98510.22;;;13.99;100.00
63715;BME280;49858;48.956;9.076;2023-04-29T04:44:19;98522.81;;;13.93;100.00
63715;BME280;49858;48.956;9.076;2023-04-29T04:47:05;98525.66;;;13.60;100.00
63715;BME280;49858;48.956;9.076;2023-04-29T04:49:44;98535.72;;;13.78;100.00
63715;BME280;49858;48.956;9.076;2023-04-29T04:52:13;98527.19;;;13.98;100.00
63715;BME280;49858;48.956;9.076;2023-04-29T04:54:47;98528.91;;;14.13;100.00
63715;BME280;49858;48.956;9.076;2023-04-29T04:57:20;98521.47;;;14.28;100.00
63715;BME280;49858;48.956;9.076;2023-04-29T04:59:48;98516.28;;;14.85;100.00
63715;BME280;49858;48.956;9.076;2023-04-29T05:02:16;98513.22;;;14.31;100.00
63715;BME280;49858;48.956;9.076;2023-04-29T05:04:44;98528.75;;;13.51;100.00
63715;BME280;49858;48.956;9.076;2023-04-29T05:07:16;98546.63;;;12.93;100.00
63715;BME280;49858;48.956;9.076;2023-04-29T05:09:59;98566.44;;;13.02;100.00
63715;BME280;49858;48.956;9.076;2023-04-29T05:12:27;98574.78;;;13.06;100.00
63715;BME280;49858;48.956;9.076;2023-04-29T05:14:57;98570.44;;;12.75;100.00
63715;BME280;49858;48.956;9.076;2023-04-29T05:17:26;98586.50;;;12.66;100.00
63715;BME280;49858;48.956;9.076;2023-04-29T05:19:54;98593.00;;;12.54;100.00
63715;BME280;49858;48.956;9.076;2023-04-29T05:22:24;98605.28;;;12.57;100.00
63715;BME280;49858;48.956;9.076;2023-04-29T05:24:54;98609.91;;;12.79;100.00
63715;BME280;49858;48.956;9.076;2023-04-29T05:27:29;98613.13;;;12.81;100.00
63715;BME280;49858;48.956;9.076;2023-04-29T05:29:57;98598.06;;;13.05;100.00
63715;BME280;49858;48.956;9.076;2023-04-29T05:32:25;98604.69;;;13.00;100.00
63715;BME280;49858;48.956;9.076;2023-04-29T05:34:53;98612.75;;;13.43;100.00
63715;BME280;49858;48.956;9.076;2023-04-29T05:37:21;98602.84;;;13.12;100.00
63715;BME280;49858;48.956;9.076;2023-04-29T05:40:03;98612.19;;;13.64;100.00
63715;BME280;49858;48.956;9.076;2023-04-29T05:42:32;98610.22;;;13.27;100.00
63715;BME280;49858;48.956;9.076;2023-04-29T05:45:00;98609.81;;;13.62;100.00
63715;BME280;49858;48.956;9.076;2023-04-29T05:47:31;98605.66;;;13.45;100.00
63715;BME280;49858;48.956;9.076;2023-04-29T05:50:00;98603.84;;;13.26;100.00
63715;BME280;49858;48.956;9.076;2023-04-29T05:52:27;98611.78;;;13.28;100.00
63715;BME280;49858;48.956;9.076;2023-04-29T05:54:56;98617.03;;;13.37;100.00
63715;BME280;49858;48.956;9.076;2023-04-29T05:57:25;98618.03;;;13.59;100.00
63715;BME280;49858;48.956;9.076;2023-04-29T05:59:53;98622.53;;;13.70;100.00
63715;BME280;49858;48.956;9.076;2023-04-29T06:02:22;98625.13;;;13.56;100.00
63715;BME280;49858;48.956;9.076;2023-04-29T06:04:50;98624.81;;;13.27;100.00
63715;BME280;49858;48.956;9.076;2023-04-29T06:07:34;98644.28;;;13.38;100.00
63715;BME280;49858;48.956;9.076;2023-04-29T06:10:14;98641.69;;;13.90;100.00
63715;BME280;49858;48.956;9.076;2023-04-29T06:12:45;98637.22;;;13.44;100.00
63715;BME280;49858;48.956;9.076;2023-04-29T06:15:16;98639.16;;;13.40;100.00
63715;BME280;49858;48.956;9.076;2023-04-29T06:17:44;98649.44;;;13.77;100.00
63715;BME280;49858;48.956;9.076;2023-04-29T06:20:12;98648.44;;;13.55;100.00
63715;BME280;49858;48.956;9.076;2023-04-29T06:22:42;98650.72;;;13.87;100.00
63715;BME280;49858;48.956;9.076;2023-04-29T06:25:13;98651.22;;;13.96;100.00
63715;BME280;49858;48.956;9.076;2023-04-29T06:27:47;98648.66;;;13.43;100.00
63715;BME280;49858;48.956;9.076;2023-04-29T06:30:18;98639.59;;;13.42;100.00
63715;BME280;49858;48.956;9.076;2023-04-29T06:32:46;98650.88;;;13.64;100.00
63715;BME280;49858;48.956;9.076;2023-04-29T06:35:14;98660.00;;;13.34;100.00
63715;BME280;49858;48.956;9.076;2023-04-29T06:38:01;98660.06;;;13.38;100.00
63715;BME280;49858;48.956;9.076;2023-04-29T06:40:41;98663.47;;;13.95;100.00
63715;BME280;49858;48.956;9.076;2023-04-29T06:43:29;98658.81;;;13.65;100.00
63715;BME280;49858;48.956;9.076;2023-04-29T06:46:13;98664.69;;;14.01;100.00
63715;BME280;49858;48.956;9.076;2023-04-29T06:49:00;98664.97;;;13.51;100.00
63715;BME280;49858;48.956;9.076;2023-04-29T06:51:30;98670.09;;;13.87;100.00
63715;BME280;49858;48.956;9.076;2023-04-29T06:53:58;98681.09;;;13.83;100.00
63715;BME280;49858;48.956;9.076;2023-04-29T06:56:26;98677.69;;;13.93;100.00
63715;BME280;49858;48.956;9.076;2023-04-29T06:58:56;98671.16;;;13.41;100.00
63715;BME280;49858;48.956;9.076;2023-04-29T07:01:24;98673.78;;;13.64;100.00
63715;BME280;49858;48.956;9.076;2023-04-29T07:03:51;98679.66;;;13.93;100.00
63715;BME280;49858;48.956;9.076;2023-04-29T07:06:20;98681.72;;;13.66;100.00
63715;BME280;49858;48.956;9.076;2023-04-29T07:08:47;98683.91;;;13.87;100.00
63715;BME280;49858;48.956;9.076;2023-04-29T07:11:15;98682.13;;;14.05;100.00
63715;BME280;49858;48.956;9.076;2023-04-29T07:13:43;98686.56;;;13.76;100.00
63715;BME280;49858;48.956;9.076;2023-04-29T07:16:16;98684.88;;;13.68;100.00
63715;BME280;49858;48.956;9.076;2023-04-29T07:18:46;98684.94;;;14.09;100.00
63715;BME280;49858;48.956;9.076;2023-04-29T07:21:14;98686.09;;;14.48;100.00
63715;BME280;49858;48.956;9.076;2023-04-29T07:23:42;98691.66;;;14.07;100.00
63715;BME280;49858;48.956;9.076;2023-04-29T07:26:11;98699.41;;;14.80;100.00
63715;BME280;49858;48.956;9.076;2023-04-29T07:28:42;98701.06;;;14.40;100.00
63715;BME280;49858;48.956;9.076;2023-04-29T07:31:10;98706.75;;;14.17;100.00
63715;BME280;49858;48.956;9.076;2023-04-29T07:33:44;98701.81;;;14.37;100.00
63715;BME280;49858;48.956;9.076;2023-04-29T07:36:12;98709.41;;;14.06;100.00
63715;BME280;49858;48.956;9.076;2023-04-29T07:38:40;98709.16;;;14.60;100.00
63715;BME280;49858;48.956;9.076;2023-04-29T07:41:08;98711.69;;;13.97;100.00
63715;BME280;49858;48.956;9.076;2023-04-29T07:43:36;98722.41;;;14.43;100.00
63715;BME280;49858;48.956;9.076;2023-04-29T07:46:07;98718.47;;;14.03;100.00
63715;BME280;49858;48.956;9.076;2023-04-29T07:48:36;98725.25;;;14.10;100.00
63715;BME280;49858;48.956;9.076;2023-04-29T07:51:11;98720.34;;;14.74;100.00
63715;BME280;49858;48.956;9.076;2023-04-29T07:53:41;98718.97;;;14.50;100.00
63715;BME280;49858;48.956;9.076;2023-04-29T07:56:09;98717.44;;;15.15;100.00
63715;BME280;49858;48.956;9.076;2023-04-29T07:58:38;98724.84;;;14.07;100.00
63715;BME280;49858;48.956;9.076;2023-04-29T08:01:06;98717.75;;;14.10;100.00
63715;BME280;49858;48.956;9.076;2023-04-29T08:03:35;98726.28;;;13.94;100.00
63715;BME280;49858;48.956;9.076;2023-04-29T08:06:09;98732.34;;;13.73;100.00
63715;BME280;49858;48.956;9.076;2023-04-29T08:08:37;98733.69;;;14.24;100.00
63715;BME280;49858;48.956;9.076;2023-04-29T08:11:05;98726.63;;;14.71;100.00
63715;BME280;49858;48.956;9.076;2023-04-29T08:13:36;98724.00;;;14.89;100.00
63715;BME280;49858;48.956;9.076;2023-04-29T08:16:04;98722.09;;;14.48;100.00
63715;BME280;49858;48.956;9.076;2023-04-29T08:18:32;98732.13;;;14.64;100.00
63715;BME280;49858;48.956;9.076;2023-04-29T08:21:00;98733.88;;;14.04;100.00
63715;BME280;49858;48.956;9.076;2023-04-29T08:23:29;98742.09;;;14.31;100.00
63715;BME280;49858;48.956;9.076;2023-04-29T08:25:57;98730.28;;;14.78;100.00
63715;BME280;49858;48.956;9.076;2023-04-29T08:28:25;98727.03;;;16.04;100.00
63715;BME280;49858;48.956;9.076;2023-04-29T08:30:53;98736.16;;;16.23;100.00
63715;BME280;49858;48.956;9.076;2023-04-29T08:33:22;98731.75;;;16.00;100.00
63715;BME280;49858;48.956;9.076;2023-04-29T08:35:56;98727.47;;;16.31;100.00
63715;BME280;49858;48.956;9.076;2023-04-29T08:38:24;98723.91;;;16.56;100.00
63715;BME280;49858;48.956;9.076;2023-04-29T08:40:54;98732.69;;;16.72;100.00
63715;BME280;49858;48.956;9.076;2023-04-29T08:43:22;98727.47;;;16.28;100.00
63715;BME280;49858;48.956;9.076;2023-04-29T08:45:51;98724.13;;;15.76;100.00
63715;BME280;49858;48.956;9.076;2023-04-29T08:48:19;98731.22;;;14.97;100.00
63715;BME280;49858;48.956;9.076;2023-04-29T08:50:48;98721.03;;;15.92;100.00
63715;BME280;49858;48.956;9.076;2023-04-29T08:53:16;98726.88;;;15.69;100.00
63715;BME280;49858;48.956;9.076;2023-04-29T08:55:46;98728.06;;;15.05;100.00
63715;BME280;49858;48.956;9.076;2023-04-29T08:58:16;98737.09;;;14.95;100.00
63715;BME280;49858;48.956;9.076;2023-04-29T09:00:44;98737.31;;;15.24;100.00
63715;BME280;49858;48.956;9.076;2023-04-29T09:03:16;98744.28;;;14.52;100.00
63715;BME280;49858;48.956;9.076;2023-04-29T09:05:48;98751.31;;;14.46;100.00
63715;BME280;49858;48.956;9.076;2023-04-29T09:08:16;98749.41;;;14.13;100.00
63715;BME280;49858;48.956;9.076;2023-04-29T09:10:47;98751.13;;;14.28;100.00
63715;BME280;49858;48.956;9.076;2023-04-29T09:13:23;98763.03;;;14.32;100.00
63715;BME280;49858;48.956;9.076;2023-04-29T09:15:51;98765.59;;;14.48;100.00
63715;BME280;49858;48.956;9.076;2023-04-29T09:18:42;98748.78;;;14.71;100.00
63715;BME280;49858;48.956;9.076;2023-04-29T09:21:17;98755.66;;;14.91;100.00
63715;BME280;49858;48.956;9.076;2023-04-29T09:23:49;98752.66;;;15.07;100.00
63715;BME280;49858;48.956;9.076;2023-04-29T09:26:17;98752.19;;;14.98;100.00
63715;BME280;49858;48.956;9.076;2023-04-29T09:29:05;98743.03;;;14.94;100.00
63715;BME280;49858;48.956;9.076;2023-04-29T09:31:34;98752.59;;;15.62;100.00
63715;BME280;49858;48.956;9.076;2023-04-29T09:34:03;98752.16;;;15.53;100.00
63715;BME280;49858;48.956;9.076;2023-04-29T09:36:38;98768.72;;;14.46;100.00
63715;BME280;49858;48.956;9.076;2023-04-29T09:39:08;98757.00;;;15.67;100.00
63715;BME280;49858;48.956;9.076;2023-04-29T09:41:39;98761.16;;;14.84;100.00
63715;BME280;49858;48.956;9.076;2023-04-29T09:44:09;98766.97;;;14.68;100.00
63715;BME280;49858;48.956;9.076;2023-04-29T09:46:37;98769.16;;;14.15;100.00
63715;BME280;49858;48.956;9.076;2023-04-29T09:49:21;98771.69;;;15.12;100.00
63715;BME280;49858;48.956;9.076;2023-04-29T09:51:55;98768.97;;;15.89;100.00
63715;BME280;49858;48.956;9.076;2023-04-29T09:54:24;98756.47;;;16.59;100.00
63715;BME280;49858;48.956;9.076;2023-04-29T09:56:55;98771.78;;;15.26;100.00
63715;BME280;49858;48.956;9.076;2023-04-29T09:59:24;98776.31;;;16.65;100.00
63715;BME280;49858;48.956;9.076;2023-04-29T10:01:57;98766.22;;;15.96;100.00
63715;BME280;49858;48.956;9.076;2023-04-29T10:04:26;98769.50;;;16.37;100.00
63715;BME280;49858;48.956;9.076;2023-04-29T10:06:55;98774.47;;;15.19;100.00
63715;BME280;49858;48.956;9.076;2023-04-29T10:09:23;98767.50;;;16.20;100.00
63715;BME280;49858;48.956;9.076;2023-04-29T10:11:52;98774.09;;;15.83;100.00
63715;BME280;49858;48.956;9.076;2023-04-29T10:14:21;98773.66;;;14.64;100.00
63715;BME280;49858;48.956;9.076;2023-04-29T10:16:56;98787.09;;;14.28;100.00
63715;BME280;49858;48.956;9.076;2023-04-29T10:19:32;98785.66;;;15.33;100.00
63715;BME280;49858;48.956;9.076;2023-04-29T10:22:06;98778.97;;;15.38;100.00
63715;BME280;49858;48.956;9.076;2023-04-29T10:24:36;98783.28;;;14.80;100.00
63715;BME280;49858;48.956;9.076;2023-04-29T10:27:06;98773.69;;;15.81;100.00
63715;BME280;49858;48.956;9.076;2023-04-29T10:29:38;98772.25;;;16.16;100.00
63715;BME280;49858;48.956;9.076;2023-04-29T10:32:08;98770.44;;;15.06;100.00
63715;BME280;49858;48.956;9.076;2023-04-29T10:34:38;98769.69;;;15.68;100.00
63715;BME280;49858;48.956;9.076;2023-04-29T10:37:07;98763.63;;;17.06;100.00
63715;BME280;49858;48.956;9.076;2023-04-29T10:39:41;98771.94;;;16.56;100.00
63715;BME280;49858;48.956;9.076;2023-04-29T10:42:16;98764.41;;;16.64;100.00
63715;BME280;49858;48.956;9.076;2023-04-29T10:45:18;98765.25;;;16.82;100.00
63715;BME280;49858;48.956;9.076;2023-04-29T10:48:13;98761.69;;;17.03;100.00
63715;BME280;49858;48.956;9.076;2023-04-29T10:51:00;98756.88;;;17.29;100.00
63715;BME280;49858;48.956;9.076;2023-04-29T10:53:29;98748.56;;;17.15;100.00
63715;BME280;49858;48.956;9.076;2023-04-29T10:56:02;98762.00;;;17.45;100.00
63715;BME280;49858;48.956;9.076;2023-04-29T10:58:42;98758.00;;;17.53;100.00
63715;BME280;49858;48.956;9.076;2023-04-29T11:01:11;98749.69;;;17.38;100.00
63715;BME280;49858;48.956;9.076;2023-04-29T11:04:02;98758.69;;;17.96;100.00
63715;BME280;49858;48.956;9.076;2023-04-29T11:06:39;98764.97;;;18.14;100.00
63715;BME280;49858;48.956;9.076;2023-04-29T11:09:14;98760.09;;;18.33;100.00
63715;BME280;49858;48.956;9.076;2023-04-29T11:11:44;98759.50;;;17.86;100.00
63715;BME280;49858;48.956;9.076;2023-04-29T11:14:12;98753.94;;;17.90;100.00
63715;BME280;49858;48.956;9.076;2023-04-29T11:16:50;98752.53;;;16.78;100.00
63715;BME280;49858;48.956;9.076;2023-04-29T11:19:22;98755.28;;;17.24;100.00
63715;BME280;49858;48.956;9.076;2023-04-29T11:22:09;98750.09;;;17.41;100.00
63715;BME280;49858;48.956;9.076;2023-04-29T11:24:48;98752.91;;;16.62;100.00
63715;BME280;49858;48.956;9.076;2023-04-29T11:27:17;98761.19;;;16.41;100.00
63715;BME280;49858;48.956;9.076;2023-04-29T11:29:45;98760.09;;;16.99;100.00
63715;BME280;49858;48.956;9.076;2023-04-29T11:32:13;98756.09;;;16.75;100.00
63715;BME280;49858;48.956;9.076;2023-04-29T11:34:43;98752.16;;;17.04;100.00
63715;BME280;49858;48.956;9.076;2023-04-29T11:37:10;98748.03;;;17.59;100.00
63715;BME280;49858;48.956;9.076;2023-04-29T11:39:38;98737.38;;;17.36;100.00
63715;BME280;49858;48.956;9.076;2023-04-29T11:42:06;98742.84;;;17.68;100.00
63715;BME280;49858;48.956;9.076;2023-04-29T11:44:35;98750.81;;;17.77;100.00
63715;BME280;49858;48.956;9.076;2023-04-29T11:47:03;98745.25;;;17.73;100.00
63715;BME280;49858;48.956;9.076;2023-04-29T11:49:31;98750.81;;;18.54;100.00
63715;BME280;49858;48.956;9.076;2023-04-29T11:52:03;98756.94;;;18.27;100.00
63715;BME280;49858;48.956;9.076;2023-04-29T11:54:31;98755.88;;;18.73;100.00
63715;BME280;49858;48.956;9.076;2023-04-29T11:56:59;98758.47;;;18.98;100.00
63715;BME280;49858;48.956;9.076;2023-04-29T11:59:30;98756.25;;;18.02;100.00
63715;BME280;49858;48.956;9.076;2023-04-29T12:02:00;98764.06;;;18.95;100.00
63715;BME280;49858;48.956;9.076;2023-04-29T12:04:28;98759.81;;;18.13;100.00
63715;BME280;49858;48.956;9.076;2023-04-29T12:06:56;98765.72;;;18.19;100.00
63715;BME280;49858;48.956;9.076;2023-04-29T12:09:26;98764.03;;;17.12;100.00
63715;BME280;49858;48.956;9.076;2023-04-29T12:11:56;98773.50;;;17.65;100.00
63715;BME280;49858;48.956;9.076;2023-04-29T12:14:24;98769.84;;;17.85;100.00
63715;BME280;49858;48.956;9.076;2023-04-29T12:16:52;98775.16;;;16.98;100.00
63715;BME280;49858;48.956;9.076;2023-04-29T12:19:19;98773.78;;;18.02;100.00
63715;BME280;49858;48.956;9.076;2023-04-29T12:21:48;98778.38;;;18.34;100.00
63715;BME280;49858;48.956;9.076;2023-04-29T12:24:19;98770.69;;;18.52;100.00
63715;BME280;49858;48.956;9.076;2023-04-29T12:26:49;98767.13;;;18.52;100.00
63715;BME280;49858;48.956;9.076;2023-04-29T12:29:20;98770.09;;;18.20;100.00
63715;BME280;49858;48.956;9.076;2023-04-29T12:31:49;98770.63;;;18.70;100.00
63715;BME280;49858;48.956;9.076;2023-04-29T12:34:27;98768.44;;;18.33;100.00
63715;BME280;49858;48.956;9.076;2023-04-29T12:36:55;98773.84;;;17.81;100.00
63715;BME280;49858;48.956;9.076;2023-04-29T12:39:23;98780.56;;;17.94;100.00
63715;BME280;49858;48.956;9.076;2023-04-29T12:41:57;98776.00;;;18.36;100.00
63715;BME280;49858;48.956;9.076;2023-04-29T12:44:25;98776.25;;;18.56;100.00
63715;BME280;49858;48.956;9.076;2023-04-29T12:46:53;98783.41;;;18.60;100.00
63715;BME280;49858;48.956;9.076;2023-04-29T12:49:24;98780.94;;;18.03;100.00
63715;BME280;49858;48.956;9.076;2023-04-29T12:51:52;98782.59;;;17.79;100.00
63715;BME280;49858;48.956;9.076;2023-04-29T12:54:21;98780.94;;;18.03;100.00
63715;BME280;49858;48.956;9.076;2023-04-29T12:56:49;98777.72;;;18.01;100.00
63715;BME280;49858;48.956;9.076;2023-04-29T12:59:18;98783.16;;;18.33;100.00
63715;BME280;49858;48.956;9.076;2023-04-29T13:01:46;98788.22;;;18.53;100.00
63715;BME280;49858;48.956;9.076;2023-04-29T13:04:14;98792.59;;;17.45;100.00
63715;BME280;49858;48.956;9.076;2023-04-29T13:06:42;98787.81;;;17.74;100.00
63715;BME280;49858;48.956;9.076;2023-04-29T13:09:10;98791.00;;;17.47;100.00
63715;BME280;49858;48.956;9.076;2023-04-29T13:11:44;98785.72;;;17.92;100.00